Time;durP1;ratioP1;P1;durP2;ratioP2;P2;SDS_P1;SDS_P2;PMS_P1;PMS_P2;Temp;Humidity;BMP_temperature;BMP_pressure;BME280_temperature;BME280_humidity;BME280_pressure;Samples;Min_cycle;Max_cycle;Signal;HPM_P1;HPM_P2
2023/03/03 00:02:13;;;;;;;1.85;0.50;;;;;;;;;;5031731;28;20072;-65
2023/03/03 00:04:39;;;;;;;3.10;0.40;;;;;;;;;;5018887;28;20152;-66
2023/03/03 00:07:06;;;;;;;1.58;0.40;;;;;;;;;;5034439;28;20060;-65
2023/03/03 00:09:32;;;;;;;1.55;0.40;;;;;;;;;;5034681;28;20989;-65
2023/03/03 00:12:00;;;;;;;3.10;0.60;;;;;;;;;;5034842;28;20055;-66
2023/03/03 00:14:31;;;;;;;3.35;0.60;;;;;;;;;;5013587;28;20033;-63
2023/03/03 00:17:00;;;;;;;1.25;0.50;;;;;;;;;;5032446;28;20052;-64
2023/03/03 00:19:27;;;;;;;1.00;0.40;;;;;;;;;;5032093;28;20084;-63
2023/03/03 00:21:56;;;;;;;1.58;0.50;;;;;;;;;;5034359;28;20036;-63
2023/03/03 00:24:24;;;;;;;2.28;0.60;;;;;;;;;;5032763;28;20057;-64
2023/03/03 00:26:54;;;;;;;1.95;0.50;;;;;;;;;;5035105;28;20890;-63
2023/03/03 00:29:31;;;;;;;2.70;0.47;;;;;;;;;;5033721;28;20716;-65
2023/03/03 00:32:21;;;;;;;3.55;0.50;;;;;;;;;;5034375;28;20401;-66
2023/03/03 00:34:48;;;;;;;2.22;0.60;;;;;;;;;;5009260;28;20045;-66
2023/03/03 00:37:27;;;;;;;1.70;0.50;;;;;;;;;;5014571;28;20670;-65
2023/03/03 00:39:58;;;;;;;6.63;0.60;;;;;;;;;;5013997;28;20110;-64
2023/03/03 00:42:27;;;;;;;2.03;0.60;;;;;;;;;;5032829;28;20114;-65
2023/03/03 00:44:59;;;;;;;3.40;0.55;;;;;;;;;;5033048;28;20064;-65
2023/03/03 00:47:27;;;;;;;2.78;0.70;;;;;;;;;;5033634;28;20115;-65
2023/03/03 00:49:55;;;;;;;4.40;0.68;;;;;;;;;;5015674;28;20079;-64
2023/03/03 00:52:23;;;;;;;1.48;0.52;;;;;;;;;;5032372;28;20608;-66
2023/03/03 00:54:49;;;;;;;1.73;0.63;;;;;;;;;;5031862;28;20476;-65
2023/03/03 00:57:16;;;;;;;1.05;0.40;;;;;;;;;;5031518;28;20040;-63
2023/03/03 00:59:43;;;;;;;2.15;0.60;;;;;;;;;;5030495;28;20045;-65
2023/03/03 01:02:09;;;;;;;1.20;0.45;;;;;;;;;;5013554;28;20047;-64
2023/03/03 01:04:36;;;;;;;4.47;0.88;;;;;;;;;;5014075;28;20525;-63
2023/03/03 01:07:03;;;;;;;3.08;0.68;;;;;;;;;;5032983;28;20049;-64
2023/03/03 01:09:29;;;;;;;2.13;0.60;;;;;;;;;;5013316;28;20033;-63
2023/03/03 01:11:56;;;;;;;3.40;0.60;;;;;;;;;;5031832;28;20566;-63
2023/03/03 01:14:22;;;;;;;1.42;0.50;;;;;;;;;;5030812;28;20090;-63
2023/03/03 01:16:49;;;;;;;1.98;0.50;;;;;;;;;;5032946;28;20076;-64
2023/03/03 01:19:16;;;;;;;1.95;0.60;;;;;;;;;;5032354;28;20084;-65
2023/03/03 01:21:42;;;;;;;2.53;0.70;;;;;;;;;;5031360;28;20571;-64
2023/03/03 01:24:09;;;;;;;2.42;0.70;;;;;;;;;;5031279;28;20033;-65
2023/03/03 01:26:36;;;;;;;6.55;0.93;;;;;;;;;;5032183;28;20398;-65
2023/03/03 01:29:02;;;;;;;2.58;0.55;;;;;;;;;;5032075;28;20045;-65
2023/03/03 01:31:29;;;;;;;5.57;0.60;;;;;;;;;;5032174;28;20037;-65
2023/03/03 01:33:56;;;;;;;1.80;0.60;;;;;;;;;;5031730;28;20067;-63
2023/03/03 01:36:23;;;;;;;2.10;0.60;;;;;;;;;;5026493;28;20046;-63
2023/03/03 01:38:50;;;;;;;1.50;0.55;;;;;;;;;;5033328;28;20041;-64
2023/03/03 01:41:17;;;;;;;2.30;0.50;;;;;;;;;;5034985;28;20123;-63
2023/03/03 01:43:45;;;;;;;1.95;0.60;;;;;;;;;;5032209;28;20044;-63
2023/03/03 01:46:20;;;;;;;1.98;0.55;;;;;;;;;;5032573;28;20041;-63
2023/03/03 01:48:47;;;;;;;2.55;0.70;;;;;;;;;;5021111;28;20141;-64
2023/03/03 01:51:16;;;;;;;2.58;0.60;;;;;;;;;;5013569;28;20044;-65
2023/03/03 01:53:46;;;;;;;2.35;0.52;;;;;;;;;;5021088;28;20175;-65
2023/03/03 01:56:12;;;;;;;2.60;0.60;;;;;;;;;;5044804;28;20033;-65
2023/03/03 01:58:46;;;;;;;2.40;0.70;;;;;;;;;;5052841;28;20413;-65
2023/03/03 02:01:19;;;;;;;1.88;0.55;;;;;;;;;;5047502;28;20076;-65
2023/03/03 02:03:45;;;;;;;2.10;0.70;;;;;;;;;;5042229;28;20049;-66
2023/03/03 02:06:16;;;;;;;1.30;0.50;;;;;;;;;;5037312;28;20050;-65
2023/03/03 02:09:03;;;;;;;2.58;0.70;;;;;;;;;;5033648;28;20171;-64
2023/03/03 02:11:31;;;;;;;3.22;0.73;;;;;;;;;;5031985;28;20301;-63
2023/03/03 02:13:58;;;;;;;2.50;0.50;;;;;;;;;;5033063;28;20136;-64
2023/03/03 02:16:25;;;;;;;3.63;0.60;;;;;;;;;;5032102;28;20099;-63
2023/03/03 02:18:52;;;;;;;2.80;0.60;;;;;;;;;;5033097;28;20040;-65
2023/03/03 02:21:20;;;;;;;2.20;0.75;;;;;;;;;;5032406;28;20056;-63
2023/03/03 02:24:01;;;;;;;2.25;0.70;;;;;;;;;;5030502;28;20596;-63
2023/03/03 02:26:29;;;;;;;3.72;0.55;;;;;;;;;;5029591;28;20041;-64
2023/03/03 02:28:56;;;;;;;2.60;0.50;;;;;;;;;;5031377;28;20048;-62
2023/03/03 02:31:24;;;;;;;1.35;0.50;;;;;;;;;;5031615;28;20128;-64
2023/03/03 02:33:52;;;;;;;2.13;0.50;;;;;;;;;;5032120;28;20468;-64
2023/03/03 02:36:18;;;;;;;2.10;0.60;;;;;;;;;;5030753;28;20044;-61
2023/03/03 02:38:48;;;;;;;2.15;0.50;;;;;;;;;;5030549;28;20087;-63
2023/03/03 02:41:33;;;;;;;2.00;0.60;;;;;;;;;;5031934;28;20037;-63
2023/03/03 02:44:02;;;;;;;1.63;0.55;;;;;;;;;;5030136;28;20052;-63
2023/03/03 02:46:32;;;;;;;4.93;0.73;;;;;;;;;;5030984;28;20052;-63
2023/03/03 02:48:59;;;;;;;2.63;0.70;;;;;;;;;;5031537;28;20057;-62
2023/03/03 02:51:25;;;;;;;2.50;0.85;;;;;;;;;;5029492;28;20144;-62
2023/03/03 02:53:52;;;;;;;1.73;0.50;;;;;;;;;;5030548;28;20048;-63
2023/03/03 02:56:19;;;;;;;1.20;0.50;;;;;;;;;;5031761;28;20036;-63
2023/03/03 02:58:45;;;;;;;1.85;0.65;;;;;;;;;;5032273;28;20056;-65
2023/03/03 03:01:12;;;;;;;3.10;0.70;;;;;;;;;;5031297;28;20041;-62
2023/03/03 03:03:39;;;;;;;2.15;0.70;;;;;;;;;;5028965;28;20056;-64
2023/03/03 03:06:06;;;;;;;5.30;0.80;;;;;;;;;;5030684;28;20045;-66
2023/03/03 03:08:32;;;;;;;1.92;0.57;;;;;;;;;;5032148;28;20052;-64
2023/03/03 03:10:59;;;;;;;2.63;0.60;;;;;;;;;;5031459;28;20048;-62
2023/03/03 03:13:26;;;;;;;2.97;0.70;;;;;;;;;;5030134;28;20037;-61
2023/03/03 03:15:53;;;;;;;5.03;0.80;;;;;;;;;;5031518;28;20083;-64
2023/03/03 03:18:19;;;;;;;2.95;0.80;;;;;;;;;;5032570;28;20454;-63
2023/03/03 03:20:46;;;;;;;2.03;0.70;;;;;;;;;;5030908;28;20132;-64
2023/03/03 03:23:13;;;;;;;1.65;0.50;;;;;;;;;;5031648;28;20043;-64
2023/03/03 03:25:44;;;;;;;2.28;0.60;;;;;;;;;;5030532;28;20078;-64
2023/03/03 03:28:11;;;;;;;2.00;0.63;;;;;;;;;;5031405;28;20118;-63
2023/03/03 03:30:38;;;;;;;1.58;0.50;;;;;;;;;;5030702;28;20091;-64
2023/03/03 03:33:05;;;;;;;1.60;0.50;;;;;;;;;;5030761;28;20045;-65
2023/03/03 03:35:35;;;;;;;1.85;0.55;;;;;;;;;;5031966;28;20497;-63
2023/03/03 03:38:02;;;;;;;2.03;0.50;;;;;;;;;;5036859;28;20123;-64
2023/03/03 03:40:28;;;;;;;1.75;0.57;;;;;;;;;;5034114;28;21498;-65
2023/03/03 03:42:55;;;;;;;1.85;0.68;;;;;;;;;;5033234;28;20041;-65
2023/03/03 03:45:22;;;;;;;3.67;0.80;;;;;;;;;;5034236;28;20041;-65
2023/03/03 03:47:49;;;;;;;7.35;0.52;;;;;;;;;;5035537;28;20037;-64
2023/03/03 03:50:15;;;;;;;2.95;0.68;;;;;;;;;;5033645;28;20479;-65
2023/03/03 03:52:42;;;;;;;1.65;0.50;;;;;;;;;;5033955;28;20042;-65
2023/03/03 03:55:09;;;;;;;1.77;0.52;;;;;;;;;;5035061;28;20173;-65
2023/03/03 03:57:36;;;;;;;2.67;0.75;;;;;;;;;;5034026;28;20096;-66
2023/03/03 04:00:04;;;;;;;4.85;0.70;;;;;;;;;;5035316;28;20052;-65
2023/03/03 04:02:30;;;;;;;2.03;0.50;;;;;;;;;;5032963;28;20418;-63
2023/03/03 04:04:57;;;;;;;1.75;0.50;;;;;;;;;;5033836;28;20056;-62
2023/03/03 04:07:24;;;;;;;2.50;0.60;;;;;;;;;;5034656;28;20048;-63
2023/03/03 04:09:50;;;;;;;1.67;0.50;;;;;;;;;;5036123;28;20037;-62
2023/03/03 04:12:17;;;;;;;2.03;0.57;;;;;;;;;;5034606;28;20121;-62
2023/03/03 04:14:44;;;;;;;1.92;0.60;;;;;;;;;;5033610;28;20048;-63
2023/03/03 04:17:16;;;;;;;4.90;0.63;;;;;;;;;;5034762;28;20037;-64
2023/03/03 04:19:42;;;;;;;2.03;0.57;;;;;;;;;;5033918;28;20064;-65
2023/03/03 04:22:09;;;;;;;3.20;0.70;;;;;;;;;;5033864;28;20033;-65
2023/03/03 04:24:37;;;;;;;1.23;0.40;;;;;;;;;;5033550;28;20442;-64
2023/03/03 04:27:03;;;;;;;1.92;0.50;;;;;;;;;;5034085;28;20086;-65
2023/03/03 04:29:30;;;;;;;1.02;0.38;;;;;;;;;;5042338;28;20037;-65
2023/03/03 04:31:57;;;;;;;1.48;0.40;;;;;;;;;;5020130;28;20182;-65
2023/03/03 04:34:24;;;;;;;1.80;0.32;;;;;;;;;;5031520;28;20403;-65
2023/03/03 04:36:50;;;;;;;3.83;0.47;;;;;;;;;;5036149;28;20136;-65
2023/03/03 04:39:17;;;;;;;2.85;0.55;;;;;;;;;;5035965;28;20146;-64
2023/03/03 04:41:43;;;;;;;1.15;0.40;;;;;;;;;;5034038;28;20041;-65
2023/03/03 04:44:10;;;;;;;1.88;0.63;;;;;;;;;;5033831;28;20439;-65
2023/03/03 04:46:37;;;;;;;5.53;0.50;;;;;;;;;;5034325;28;20041;-63
2023/03/03 04:49:06;;;;;;;1.65;0.50;;;;;;;;;;5032671;28;20311;-65
2023/03/03 04:51:33;;;;;;;1.50;0.50;;;;;;;;;;5033266;28;20520;-64
2023/03/03 04:54:00;;;;;;;1.58;0.50;;;;;;;;;;5035870;28;20033;-65
2023/03/03 04:56:27;;;;;;;0.85;0.40;;;;;;;;;;5034728;28;20033;-65
2023/03/03 04:58:54;;;;;;;0.73;0.30;;;;;;;;;;5037207;28;20042;-64
2023/03/03 05:01:21;;;;;;;1.58;0.50;;;;;;;;;;5033879;28;20044;-62
2023/03/03 05:03:48;;;;;;;1.40;0.40;;;;;;;;;;5032235;28;20103;-63
2023/03/03 05:06:17;;;;;;;1.85;0.60;;;;;;;;;;5035112;28;21729;-62
2023/03/03 05:08:44;;;;;;;1.23;0.50;;;;;;;;;;5019002;28;20072;-63
2023/03/03 05:11:12;;;;;;;1.13;0.47;;;;;;;;;;5033781;28;20485;-64
2023/03/03 05:13:39;;;;;;;0.65;0.32;;;;;;;;;;5034224;28;20034;-63
2023/03/03 05:16:06;;;;;;;0.70;0.30;;;;;;;;;;5035345;28;20033;-63
2023/03/03 05:18:33;;;;;;;7.72;0.60;;;;;;;;;;5032909;28;20040;-62
2023/03/03 05:20:59;;;;;;;1.10;0.50;;;;;;;;;;5035206;28;20029;-63
2023/03/03 05:23:26;;;;;;;0.65;0.40;;;;;;;;;;5013669;28;20055;-65
2023/03/03 05:25:53;;;;;;;1.20;0.30;;;;;;;;;;5033508;28;20087;-65
2023/03/03 05:28:19;;;;;;;1.85;0.63;;;;;;;;;;5029918;28;20074;-65
2023/03/03 05:30:46;;;;;;;0.30;0.30;;;;;;;;;;5038905;28;20413;-64
2023/03/03 05:33:14;;;;;;;1.67;0.47;;;;;;;;;;5033813;28;21132;-65
2023/03/03 05:35:40;;;;;;;2.05;0.45;;;;;;;;;;5033186;28;20148;-64
2023/03/03 05:38:07;;;;;;;1.27;0.57;;;;;;;;;;5033760;28;20044;-64
2023/03/03 05:40:34;;;;;;;3.10;0.50;;;;;;;;;;5033697;28;20469;-65
2023/03/03 05:43:00;;;;;;;1.38;0.40;;;;;;;;;;5031467;28;20049;-64
2023/03/03 05:45:27;;;;;;;0.80;0.40;;;;;;;;;;5031344;28;20040;-64
2023/03/03 05:47:55;;;;;;;0.45;0.30;;;;;;;;;;5033987;28;20050;-63
2023/03/03 05:50:22;;;;;;;1.67;0.47;;;;;;;;;;5033744;28;20025;-64
2023/03/03 05:52:49;;;;;;;0.32;0.22;;;;;;;;;;5031797;28;20033;-66
2023/03/03 05:55:18;;;;;;;0.47;0.30;;;;;;;;;;5032249;28;20067;-64
2023/03/03 05:57:44;;;;;;;0.85;0.40;;;;;;;;;;5031613;28;20244;-64
2023/03/03 06:00:12;;;;;;;0.98;0.40;;;;;;;;;;5031661;28;20044;-63
2023/03/03 06:02:39;;;;;;;1.23;0.32;;;;;;;;;;5031538;28;20115;-63
2023/03/03 06:05:06;;;;;;;1.80;0.50;;;;;;;;;;5032341;28;20049;-65
2023/03/03 06:07:33;;;;;;;0.88;0.30;;;;;;;;;;5032111;28;20052;-65
2023/03/03 06:09:59;;;;;;;0.20;0.20;;;;;;;;;;5032769;28;20098;-65
2023/03/03 06:12:26;;;;;;;1.08;0.40;;;;;;;;;;5021574;28;20037;-65
2023/03/03 06:14:53;;;;;;;1.55;0.60;;;;;;;;;;5032367;28;20116;-63
2023/03/03 06:17:19;;;;;;;0.50;0.32;;;;;;;;;;5032359;28;20041;-65
2023/03/03 06:19:47;;;;;;;0.75;0.30;;;;;;;;;;5032390;28;20068;-65
2023/03/03 06:22:14;;;;;;;33.83;1.25;;;;;;;;;;5031114;28;20037;-64
2023/03/03 06:24:40;;;;;;;0.40;0.20;;;;;;;;;;5019150;28;22487;-64
2023/03/03 06:27:27;;;;;;;2.00;0.40;;;;;;;;;;4999597;28;20834;-64
2023/03/03 06:29:53;;;;;;;0.22;0.22;;;;;;;;;;5005308;28;20073;-65
2023/03/03 06:32:20;;;;;;;0.75;0.57;;;;;;;;;;5003620;28;20068;-64
2023/03/03 06:34:48;;;;;;;1.25;0.40;;;;;;;;;;4997585;28;20591;-66
2023/03/03 06:37:15;;;;;;;0.45;0.30;;;;;;;;;;5006253;28;20068;-66
2023/03/03 06:39:41;;;;;;;0.95;0.40;;;;;;;;;;5004379;28;20068;-65
2023/03/03 06:42:08;;;;;;;0.98;0.40;;;;;;;;;;4993521;28;20049;-67
2023/03/03 06:44:35;;;;;;;0.32;0.30;;;;;;;;;;5002320;28;21011;-66
2023/03/03 06:47:02;;;;;;;1.60;0.50;;;;;;;;;;5004648;28;20078;-66
2023/03/03 06:49:28;;;;;;;0.73;0.32;;;;;;;;;;5004057;28;20041;-66
2023/03/03 06:51:56;;;;;;;0.20;0.20;;;;;;;;;;5004029;28;20073;-65
2023/03/03 06:54:27;;;;;;;0.40;0.30;;;;;;;;;;5008482;28;20049;-65
2023/03/03 06:56:56;;;;;;;2.47;0.60;;;;;;;;;;5005228;28;20046;-66
2023/03/03 06:59:23;;;;;;;2.20;0.43;;;;;;;;;;5002326;28;20038;-66
2023/03/03 07:01:50;;;;;;;1.75;0.50;;;;;;;;;;4993964;28;20192;-65
2023/03/03 07:04:32;;;;;;;0.55;0.32;;;;;;;;;;4994723;28;20134;-65
2023/03/03 07:07:07;;;;;;;0.20;0.20;;;;;;;;;;5018392;28;20052;-68
2023/03/03 07:09:34;;;;;;;3.05;0.68;;;;;;;;;;5011867;28;20052;-67
2023/03/03 07:12:02;;;;;;;1.50;0.50;;;;;;;;;;5022355;28;20504;-66
2023/03/03 07:14:29;;;;;;;0.88;0.35;;;;;;;;;;5036762;28;20036;-66
2023/03/03 07:17:04;;;;;;;0.40;0.30;;;;;;;;;;5039189;28;20041;-65
2023/03/03 07:19:33;;;;;;;1.25;0.40;;;;;;;;;;5037819;28;20144;-65
2023/03/03 07:22:01;;;;;;;2.17;0.30;;;;;;;;;;5038559;28;20052;-67
2023/03/03 07:24:29;;;;;;;1.00;0.43;;;;;;;;;;5037353;28;20068;-65
2023/03/03 07:27:14;;;;;;;1.50;0.40;;;;;;;;;;5039623;28;20071;-66
2023/03/03 07:29:41;;;;;;;0.60;0.30;;;;;;;;;;5039124;28;20475;-66
2023/03/03 07:32:23;;;;;;;0.75;0.40;;;;;;;;;;5037916;28;20055;-67
2023/03/03 07:34:51;;;;;;;2.13;0.40;;;;;;;;;;5037104;28;20049;-66
2023/03/03 07:37:38;;;;;;;1.75;0.50;;;;;;;;;;5028828;28;20047;-66
2023/03/03 07:40:24;;;;;;;1.05;0.35;;;;;;;;;;5036499;28;20095;-67
2023/03/03 07:42:51;;;;;;;2.92;0.70;;;;;;;;;;5037135;28;20466;-66
2023/03/03 07:45:38;;;;;;;1.58;0.52;;;;;;;;;;5020601;28;20043;-66
2023/03/03 07:48:17;;;;;;;2.95;0.60;;;;;;;;;;5036847;28;20080;-66
2023/03/03 07:50:43;;;;;;;6.38;0.40;;;;;;;;;;5039142;28;20381;-67
2023/03/03 07:53:36;;;;;;;2.30;0.60;;;;;;;;;;5038038;28;20029;-64
2023/03/03 07:56:11;;;;;;;0.80;0.32;;;;;;;;;;5001528;28;20036;-67
2023/03/03 07:58:39;;;;;;;2.92;0.60;;;;;;;;;;5007690;28;20152;-66
2023/03/03 08:01:27;;;;;;;1.00;0.47;;;;;;;;;;5033246;28;20051;-65
2023/03/03 08:03:53;;;;;;;1.90;0.63;;;;;;;;;;4997886;28;20041;-65
2023/03/03 08:06:35;;;;;;;1.27;0.52;;;;;;;;;;5039451;28;20048;-64
2023/03/03 08:09:13;;;;;;;3.47;0.60;;;;;;;;;;5038788;28;20453;-65
2023/03/03 08:12:00;;;;;;;2.00;0.60;;;;;;;;;;5037488;28;20437;-63
2023/03/03 08:14:30;;;;;;;2.58;0.80;;;;;;;;;;5006987;28;20490;-64
2023/03/03 08:16:57;;;;;;;3.95;0.60;;;;;;;;;;5038220;28;20184;-63
2023/03/03 08:19:24;;;;;;;1.65;0.60;;;;;;;;;;5037891;28;20557;-63
2023/03/03 08:21:51;;;;;;;1.52;0.60;;;;;;;;;;5038785;28;20491;-64
2023/03/03 08:24:18;;;;;;;6.97;0.65;;;;;;;;;;5033930;28;20179;-64
2023/03/03 08:26:44;;;;;;;1.65;0.57;;;;;;;;;;5034244;28;20086;-64
2023/03/03 08:29:11;;;;;;;2.45;0.70;;;;;;;;;;5033948;28;20566;-64
2023/03/03 08:31:38;;;;;;;2.45;0.70;;;;;;;;;;5034119;28;20521;-64
2023/03/03 08:34:04;;;;;;;2.03;0.60;;;;;;;;;;5033059;28;20046;-64
2023/03/03 08:36:31;;;;;;;3.55;0.70;;;;;;;;;;5034868;28;20043;-64
2023/03/03 08:38:58;;;;;;;4.40;1.25;;;;;;;;;;5035022;28;20101;-65
2023/03/03 08:41:24;;;;;;;6.07;1.20;;;;;;;;;;5034963;28;20076;-64
2023/03/03 08:43:51;;;;;;;2.28;0.80;;;;;;;;;;5034548;28;20381;-64
2023/03/03 08:46:17;;;;;;;5.00;0.88;;;;;;;;;;5033547;28;20048;-65
2023/03/03 08:48:44;;;;;;;4.10;0.52;;;;;;;;;;5032911;28;20045;-65
2023/03/03 08:51:11;;;;;;;2.13;0.90;;;;;;;;;;5033997;28;20183;-65
2023/03/03 08:53:37;;;;;;;5.85;1.08;;;;;;;;;;5033213;28;20135;-65
2023/03/03 08:56:05;;;;;;;3.67;0.70;;;;;;;;;;5034047;28;20460;-66
2023/03/03 08:58:32;;;;;;;2.20;0.52;;;;;;;;;;5033804;28;20046;-65
2023/03/03 09:00:59;;;;;;;3.17;0.70;;;;;;;;;;5034415;28;20037;-65
2023/03/03 09:03:25;;;;;;;1.60;0.60;;;;;;;;;;5032798;28;20036;-65
2023/03/03 09:05:52;;;;;;;2.55;0.68;;;;;;;;;;5034328;28;20122;-65
2023/03/03 09:08:19;;;;;;;2.72;0.73;;;;;;;;;;5034428;28;20071;-64
2023/03/03 09:10:46;;;;;;;1.55;0.60;;;;;;;;;;5021337;28;20490;-66
2023/03/03 09:13:17;;;;;;;1.55;0.50;;;;;;;;;;5013704;28;20046;-66
2023/03/03 09:15:44;;;;;;;1.45;0.40;;;;;;;;;;5017125;28;20040;-65
2023/03/03 09:18:11;;;;;;;6.70;0.73;;;;;;;;;;5032492;28;20033;-66
2023/03/03 09:20:42;;;;;;;0.93;0.47;;;;;;;;;;5033401;28;20045;-65
2023/03/03 09:23:24;;;;;;;0.93;0.40;;;;;;;;;;5032941;28;20048;-66
2023/03/03 09:25:51;;;;;;;3.25;0.40;;;;;;;;;;5033766;28;20037;-66
2023/03/03 09:28:24;;;;;;;1.13;0.38;;;;;;;;;;5033557;28;20289;-65
2023/03/03 09:30:51;;;;;;;1.23;0.55;;;;;;;;;;5034078;28;20086;-67
2023/03/03 09:33:25;;;;;;;1.20;0.50;;;;;;;;;;5033084;28;20387;-66
2023/03/03 09:35:53;;;;;;;0.70;0.30;;;;;;;;;;5021137;28;20114;-65
2023/03/03 09:38:31;;;;;;;1.40;0.50;;;;;;;;;;5012752;28;20406;-66
2023/03/03 09:41:14;;;;;;;0.95;0.40;;;;;;;;;;5026990;28;20052;-65
2023/03/03 09:43:51;;;;;;;1.27;0.43;;;;;;;;;;5032211;28;20036;-66
2023/03/03 09:46:36;;;;;;;2.55;0.50;;;;;;;;;;5032327;28;20328;-64
2023/03/03 09:49:09;;;;;;;3.03;0.65;;;;;;;;;;5033108;28;20246;-65
2023/03/03 09:51:39;;;;;;;0.93;0.38;;;;;;;;;;5033019;28;20445;-66
2023/03/03 09:54:11;;;;;;;1.33;0.47;;;;;;;;;;5024139;28;20041;-64
2023/03/03 09:56:50;;;;;;;0.60;0.30;;;;;;;;;;5032947;28;20195;-64
2023/03/03 09:59:27;;;;;;;0.55;0.30;;;;;;;;;;5033498;28;20045;-65
2023/03/03 10:02:12;;;;;;;5.53;0.60;;;;;;;;;;5019936;28;20049;-65
2023/03/03 10:04:43;;;;;;;2.08;0.63;;;;;;;;;;5012518;28;20054;-65
2023/03/03 10:07:28;;;;;;;0.50;0.28;;;;;;;;;;5013633;28;20196;-65
2023/03/03 10:10:13;;;;;;;2.08;0.52;;;;;;;;;;5013359;28;20052;-66
2023/03/03 10:12:58;;;;;;;2.72;0.70;;;;;;;;;;5012277;28;20659;-66
2023/03/03 10:15:37;;;;;;;1.10;0.50;;;;;;;;;;5012341;28;20052;-66
2023/03/03 10:18:12;;;;;;;1.80;0.50;;;;;;;;;;5013581;28;20133;-66
2023/03/03 10:20:58;;;;;;;0.77;0.30;;;;;;;;;;5022255;28;20739;-66
2023/03/03 10:23:43;;;;;;;1.02;0.45;;;;;;;;;;5032272;28;20782;-66
2023/03/03 10:26:16;;;;;;;3.92;0.60;;;;;;;;;;5032909;28;20068;-66
2023/03/03 10:28:52;;;;;;;1.80;0.60;;;;;;;;;;5032184;28;20049;-66
2023/03/03 10:31:34;;;;;;;1.02;0.40;;;;;;;;;;5032494;28;20766;-66
2023/03/03 10:34:13;;;;;;;2.15;0.50;;;;;;;;;;5032278;28;20064;-66
2023/03/03 10:36:46;;;;;;;0.98;0.30;;;;;;;;;;5031923;28;20048;-67
2023/03/03 10:39:13;;;;;;;2.08;0.80;;;;;;;;;;5032109;28;20124;-66
2023/03/03 10:41:48;;;;;;;1.70;0.60;;;;;;;;;;5032576;28;20374;-68
2023/03/03 10:44:15;;;;;;;1.17;0.45;;;;;;;;;;5033441;28;20056;-68
2023/03/03 10:46:48;;;;;;;1.63;0.50;;;;;;;;;;5032063;28;20592;-64
2023/03/03 10:49:33;;;;;;;1.48;0.50;;;;;;;;;;5032339;28;20072;-65
2023/03/03 10:52:00;;;;;;;2.88;0.50;;;;;;;;;;5032063;28;20568;-66
2023/03/03 10:54:51;;;;;;;1.75;0.38;;;;;;;;;;5032334;28;20087;-66
2023/03/03 10:57:18;;;;;;;0.65;0.38;;;;;;;;;;5032580;28;20048;-66
2023/03/03 10:59:48;;;;;;;3.35;0.35;;;;;;;;;;5032290;28;20048;-66
2023/03/03 11:02:24;;;;;;;1.33;0.47;;;;;;;;;;5033109;28;20184;-65
2023/03/03 11:04:50;;;;;;;0.20;0.20;;;;;;;;;;5021919;28;20059;-65
2023/03/03 11:07:17;;;;;;;1.95;0.50;;;;;;;;;;5031945;28;20555;-67
2023/03/03 11:09:53;;;;;;;1.00;0.40;;;;;;;;;;5031774;28;20055;-67
2023/03/03 11:12:38;;;;;;;1.02;0.40;;;;;;;;;;5030675;28;20406;-65
2023/03/03 11:15:17;;;;;;;1.35;0.40;;;;;;;;;;5031992;28;20041;-66
2023/03/03 11:17:59;;;;;;;1.13;0.50;;;;;;;;;;5029949;28;20044;-67
2023/03/03 11:20:38;;;;;;;1.98;0.43;;;;;;;;;;5032085;28;20044;-66
2023/03/03 11:23:07;;;;;;;1.50;0.40;;;;;;;;;;5030810;28;20053;-65
2023/03/03 11:25:34;;;;;;;0.45;0.25;;;;;;;;;;5031646;28;20041;-67
2023/03/03 11:28:06;;;;;;;2.20;0.50;;;;;;;;;;5032148;28;20546;-68
2023/03/03 11:30:39;;;;;;;0.43;0.30;;;;;;;;;;5031028;28;20049;-66
2023/03/03 11:33:05;;;;;;;1.60;0.57;;;;;;;;;;5032290;28;20080;-67
2023/03/03 11:35:38;;;;;;;0.65;0.30;;;;;;;;;;5031882;28;20048;-67
2023/03/03 11:38:09;;;;;;;1.17;0.60;;;;;;;;;;5031794;28;20045;-67
2023/03/03 11:40:59;;;;;;;1.48;0.40;;;;;;;;;;5029589;28;20051;-67
2023/03/03 11:43:31;;;;;;;1.42;0.40;;;;;;;;;;5031296;28;20138;-65
2023/03/03 11:46:11;;;;;;;1.00;0.30;;;;;;;;;;5032461;28;20037;-65
2023/03/03 11:49:10;;;;;;;0.73;0.30;;;;;;;;;;5031089;28;20502;-66
2023/03/03 11:51:53;;;;;;;0.20;0.20;;;;;;;;;;4985068;28;20076;-66
2023/03/03 11:54:21;;;;;;;1.23;0.50;;;;;;;;;;5043146;28;20132;-68
2023/03/03 11:56:47;;;;;;;1.02;0.47;;;;;;;;;;5039677;28;20063;-65
2023/03/03 11:59:32;;;;;;;0.20;0.20;;;;;;;;;;5049902;28;20040;-67
2023/03/03 12:02:20;;;;;;;0.40;0.30;;;;;;;;;;5038298;28;20091;-67
2023/03/03 12:04:50;;;;;;;0.32;0.30;;;;;;;;;;5036381;28;20134;-65
2023/03/03 12:07:23;;;;;;;0.38;0.30;;;;;;;;;;5035644;28;20029;-66
2023/03/03 12:10:13;;;;;;;0.63;0.30;;;;;;;;;;5026778;28;20772;-67
2023/03/03 12:12:44;;;;;;;1.08;0.38;;;;;;;;;;5024454;28;20049;-65
2023/03/03 12:15:29;;;;;;;1.75;0.47;;;;;;;;;;5033903;28;20037;-66
2023/03/03 12:18:25;;;;;;;1.10;0.40;;;;;;;;;;5035161;28;20039;-66
2023/03/03 12:21:12;;;;;;;0.75;0.35;;;;;;;;;;5013281;28;20219;-66
2023/03/03 12:23:41;;;;;;;0.68;0.40;;;;;;;;;;5035535;28;20041;-67
2023/03/03 12:26:25;;;;;;;0.77;0.40;;;;;;;;;;5035440;28;20503;-67
2023/03/03 12:28:58;;;;;;;0.38;0.30;;;;;;;;;;5033841;28;20123;-71
2023/03/03 12:31:30;;;;;;;4.10;0.47;;;;;;;;;;5035637;28;20029;-68
2023/03/03 12:34:00;;;;;;;0.77;0.38;;;;;;;;;;5035558;28;20083;-68
2023/03/03 12:36:46;;;;;;;1.42;0.47;;;;;;;;;;5016644;28;20044;-67
2023/03/03 12:39:12;;;;;;;0.55;0.30;;;;;;;;;;5034657;28;20048;-65
2023/03/03 12:41:42;;;;;;;1.02;0.40;;;;;;;;;;5034626;28;20041;-66
2023/03/03 12:44:15;;;;;;;1.77;0.50;;;;;;;;;;5034741;28;20111;-64
2023/03/03 12:46:46;;;;;;;0.45;0.30;;;;;;;;;;5034670;28;20053;-66
2023/03/03 12:49:13;;;;;;;1.17;0.40;;;;;;;;;;5034161;28;20151;-65
2023/03/03 12:51:57;;;;;;;1.23;0.40;;;;;;;;;;5034152;28;20118;-65
2023/03/03 12:54:40;;;;;;;0.80;0.32;;;;;;;;;;5034352;28;20056;-68
2023/03/03 12:57:12;;;;;;;1.77;0.50;;;;;;;;;;5035718;28;20440;-66
2023/03/03 12:59:46;;;;;;;4.18;0.40;;;;;;;;;;5033933;28;20056;-66
2023/03/03 13:02:25;;;;;;;1.45;0.43;;;;;;;;;;5034542;28;20044;-66
2023/03/03 13:04:55;;;;;;;1.33;0.43;;;;;;;;;;5021055;28;20049;-66
2023/03/03 13:07:31;;;;;;;0.55;0.40;;;;;;;;;;5012931;28;20346;-67
2023/03/03 13:10:13;;;;;;;1.75;0.50;;;;;;;;;;5012706;28;20045;-67
2023/03/03 13:12:49;;;;;;;1.63;0.50;;;;;;;;;;5013981;28;20129;-65
2023/03/03 13:15:25;;;;;;;1.25;0.30;;;;;;;;;;5010337;28;20037;-65
2023/03/03 13:17:57;;;;;;;1.17;0.40;;;;;;;;;;5013512;28;20049;-65
2023/03/03 13:20:30;;;;;;;1.77;0.52;;;;;;;;;;5014119;28;20110;-65
2023/03/03 13:22:56;;;;;;;0.22;0.20;;;;;;;;;;5015359;28;20114;-66
2023/03/03 13:25:26;;;;;;;0.77;0.40;;;;;;;;;;5013778;28;20029;-67
2023/03/03 13:27:56;;;;;;;0.70;0.30;;;;;;;;;;5015676;28;20052;-69
2023/03/03 13:30:24;;;;;;;0.70;0.30;;;;;;;;;;5013057;28;20034;-65
2023/03/03 13:32:57;;;;;;;0.93;0.40;;;;;;;;;;5014523;28;20064;-63
2023/03/03 13:35:29;;;;;;;1.70;0.60;;;;;;;;;;5013191;28;20041;-66
2023/03/03 13:37:57;;;;;;;1.17;0.30;;;;;;;;;;5015384;28;20038;-65
2023/03/03 13:40:31;;;;;;;1.35;0.47;;;;;;;;;;5011806;28;20041;-66
2023/03/03 13:43:00;;;;;;;0.20;0.20;;;;;;;;;;5013068;28;20140;-65
2023/03/03 13:45:30;;;;;;;1.02;0.40;;;;;;;;;;5007134;28;20442;-65
2023/03/03 13:48:08;;;;;;;1.35;0.40;;;;;;;;;;5028705;28;20799;-67
2023/03/03 13:50:44;;;;;;;1.92;0.60;;;;;;;;;;5013823;28;20048;-66
2023/03/03 13:53:26;;;;;;;2.35;0.40;;;;;;;;;;5014503;28;20045;-67
2023/03/03 13:55:58;;;;;;;2.78;0.75;;;;;;;;;;5010106;28;20037;-64
2023/03/03 13:58:45;;;;;;;1.77;0.57;;;;;;;;;;5013159;28;20478;-65
2023/03/03 14:01:29;;;;;;;3.72;1.02;;;;;;;;;;5003109;28;20121;-65
2023/03/03 14:03:55;;;;;;;1.77;0.70;;;;;;;;;;5011387;28;20060;-65
2023/03/03 14:06:23;;;;;;;2.92;0.82;;;;;;;;;;5013603;28;20458;-66
2023/03/03 14:08:55;;;;;;;1.95;0.65;;;;;;;;;;5013342;28;20502;-65
2023/03/03 14:11:39;;;;;;;4.30;0.60;;;;;;;;;;5014453;28;20077;-67
2023/03/03 14:14:24;;;;;;;0.77;0.50;;;;;;;;;;5014802;28;20118;-66
2023/03/03 14:16:51;;;;;;;0.88;0.32;;;;;;;;;;5014000;28;20049;-67
2023/03/03 14:19:20;;;;;;;4.60;0.50;;;;;;;;;;5012382;28;20498;-66
2023/03/03 14:22:12;;;;;;;0.75;0.32;;;;;;;;;;5013291;28;20029;-65
2023/03/03 14:24:57;;;;;;;1.30;0.55;;;;;;;;;;5004885;28;20052;-64
2023/03/03 14:27:27;;;;;;;1.75;0.40;;;;;;;;;;5010962;28;20049;-65
2023/03/03 14:29:54;;;;;;;1.40;0.45;;;;;;;;;;5011457;28;20033;-64
2023/03/03 14:32:23;;;;;;;1.88;0.52;;;;;;;;;;5013115;28;20064;-64
2023/03/03 14:35:01;;;;;;;1.98;0.60;;;;;;;;;;5013168;28;20073;-64
2023/03/03 14:37:57;;;;;;;2.72;1.17;;;;;;;;;;5012328;28;20052;-66
2023/03/03 14:40:31;;;;;;;11.82;1.65;;;;;;;;;;4959657;28;20219;-65
2023/03/03 14:42:59;;;;;;;3.63;1.10;;;;;;;;;;5012035;28;20492;-66
2023/03/03 14:45:37;;;;;;;1.45;0.60;;;;;;;;;;5011589;28;20471;-65
2023/03/03 14:48:27;;;;;;;6.28;0.60;;;;;;;;;;5011243;28;20476;-66
2023/03/03 14:50:57;;;;;;;1.10;0.50;;;;;;;;;;5023450;28;20045;-65
2023/03/03 14:53:32;;;;;;;1.73;0.50;;;;;;;;;;5031889;28;20114;-64
2023/03/03 14:56:21;;;;;;;2.70;0.55;;;;;;;;;;5033019;28;20037;-65
2023/03/03 14:58:48;;;;;;;0.93;0.40;;;;;;;;;;5004596;28;21997;-67
2023/03/03 15:01:17;;;;;;;5.90;0.60;;;;;;;;;;5032040;28;20044;-65
2023/03/03 15:03:47;;;;;;;2.22;0.60;;;;;;;;;;5031417;28;20041;-64
2023/03/03 15:06:27;;;;;;;9.20;0.43;;;;;;;;;;5032007;28;20040;-65
2023/03/03 15:08:54;;;;;;;5.25;0.50;;;;;;;;;;5014903;28;20141;-64